createdAt,value
2022-08-20T00:02:15.535Z,5.10
2022-08-20T00:04:44.203Z,4.80
2022-08-20T00:07:14.106Z,4.40
2022-08-20T00:09:43.443Z,4.40
2022-08-20T00:12:16.138Z,5.30
2022-08-20T00:14:44.296Z,4.70
2022-08-20T00:17:12.463Z,4.60
2022-08-20T00:19:40.573Z,4.60
2022-08-20T00:22:08.738Z,5.30
2022-08-20T00:24:36.874Z,5.50
2022-08-20T00:27:04.997Z,5.90
2022-08-20T00:29:33.244Z,5.20
2022-08-20T00:32:01.329Z,5.10
2022-08-20T00:34:29.549Z,5.60
2022-08-20T00:36:57.705Z,5.30
2022-08-20T00:39:25.919Z,5.80
2022-08-20T00:41:54.011Z,5.80
2022-08-20T00:44:23.089Z,5.80
2022-08-20T00:46:53.225Z,5.20
2022-08-20T00:49:25.918Z,5.60
2022-08-20T00:52:06.406Z,5.50
2022-08-20T00:55:02.169Z,4.70
2022-08-20T00:58:01.426Z,5.30
2022-08-20T01:00:38.193Z,5.10
2022-08-20T01:03:10.084Z,5.80
2022-08-20T01:05:41.847Z,4.60
2022-08-20T01:08:09.993Z,5.80
2022-08-20T01:10:41.849Z,5.60
2022-08-20T01:13:13.448Z,6.10
2022-08-20T01:15:44.571Z,4.80
2022-08-20T01:18:23.117Z,5.10
2022-08-20T01:20:55.665Z,5.70
2022-08-20T01:23:49.154Z,5.90
2022-08-20T01:26:21.372Z,5.50
2022-08-20T01:28:58.932Z,6.10
2022-08-20T01:31:33.521Z,6.70
2022-08-20T01:34:04.297Z,5.80
2022-08-20T01:36:42.984Z,6.90
2022-08-20T01:39:21.778Z,6.50
2022-08-20T01:42:09.009Z,5.70
2022-08-20T01:44:39.438Z,5.90
2022-08-20T01:47:31.320Z,6.20
2022-08-20T01:50:15.113Z,6.40
2022-08-20T01:52:48.767Z,5.90
2022-08-20T01:55:17.187Z,5.80
2022-08-20T01:57:45.454Z,5.90
2022-08-20T02:00:20.053Z,5.80
2022-08-20T02:02:50.949Z,5.70
2022-08-20T02:05:20.324Z,6.70
2022-08-20T02:07:48.970Z,6.30
2022-08-20T02:10:18.979Z,6.10
2022-08-20T02:12:47.518Z,5.80
2022-08-20T02:15:16.165Z,6.00
2022-08-20T02:17:45.104Z,6.70
2022-08-20T02:20:20.258Z,6.60
2022-08-20T02:22:55.684Z,6.10
2022-08-20T02:25:27.352Z,6.90
2022-08-20T02:28:01.571Z,6.60
2022-08-20T02:30:46.508Z,6.10
2022-08-20T02:33:17.367Z,5.50
2022-08-20T02:35:48.333Z,6.00
2022-08-20T02:38:17.152Z,6.10
2022-08-20T02:40:46.620Z,6.80
2022-08-20T02:43:19.086Z,6.20
2022-08-20T02:45:47.405Z,5.90
2022-08-20T02:48:21.374Z,5.60
2022-08-20T02:50:52.776Z,6.90
2022-08-20T02:53:21.534Z,6.20
2022-08-20T02:55:50.610Z,6.40
2022-08-20T02:58:20.159Z,7.10
2022-08-20T03:00:49.306Z,7.10
2022-08-20T03:03:22.800Z,7.70
2022-08-20T03:05:54.380Z,7.50
2022-08-20T03:08:23.426Z,7.50
2022-08-20T03:10:52.260Z,8.60
2022-08-20T03:13:22.853Z,8.20
2022-08-20T03:15:59.264Z,7.50
2022-08-20T03:18:33.902Z,8.90
2022-08-20T03:21:03.930Z,6.90
2022-08-20T03:23:32.380Z,7.40
2022-08-20T03:26:06.503Z,7.10
2022-08-20T03:28:35.120Z,7.70
2022-08-20T03:31:05.200Z,7.40
2022-08-20T03:33:33.835Z,7.20
2022-08-20T03:36:02.157Z,7.00
2022-08-20T03:38:33.030Z,7.80
2022-08-20T03:41:02.439Z,6.80
2022-08-20T03:43:31.346Z,6.90
2022-08-20T03:46:00.213Z,6.60
2022-08-20T03:48:28.805Z,7.00
2022-08-20T03:50:58.742Z,6.80
2022-08-20T03:53:31.961Z,6.60
2022-08-20T03:56:04.827Z,6.90
2022-08-20T03:58:36.559Z,7.70
2022-08-20T04:01:06.795Z,7.60
2022-08-20T04:03:35.674Z,8.40
2022-08-20T04:06:04.411Z,7.10
2022-08-20T04:08:32.684Z,7.20
2022-08-20T04:11:00.865Z,7.80
2022-08-20T04:13:30.553Z,7.40
2022-08-20T04:16:02.124Z,7.20
2022-08-20T04:18:30.293Z,7.50
2022-08-20T04:20:58.386Z,7.80
2022-08-20T04:23:26.525Z,6.30
2022-08-20T04:25:56.650Z,10.30
2022-08-20T04:28:27.156Z,12.10
2022-08-20T04:30:57.944Z,11.50
2022-08-20T04:33:34.076Z,13.30
2022-08-20T04:36:06.181Z,9.50
2022-08-20T04:38:47.926Z,9.20
2022-08-20T04:41:24.195Z,7.60
2022-08-20T04:43:55.116Z,8.50
2022-08-20T04:46:26.109Z,8.80
2022-08-20T04:48:55.816Z,8.40
2022-08-20T04:51:24.829Z,8.70
2022-08-20T04:53:54.585Z,9.20
2022-08-20T04:56:26.107Z,8.50
2022-08-20T04:58:57.778Z,9.10
2022-08-20T05:01:27.071Z,10.20
2022-08-20T05:03:57.254Z,8.80
2022-08-20T05:06:31.248Z,8.40
2022-08-20T05:09:00.596Z,8.40
2022-08-20T05:11:33.549Z,7.10
2022-08-20T05:14:09.049Z,8.10
2022-08-20T05:16:39.435Z,8.20
2022-08-20T05:19:10.312Z,9.00
2022-08-20T05:21:39.337Z,8.80
2022-08-20T05:24:07.937Z,8.10
2022-08-20T05:26:36.399Z,8.00
2022-08-20T05:29:05.712Z,7.80
2022-08-20T05:31:35.123Z,7.70
2022-08-20T05:34:10.831Z,7.70
2022-08-20T05:36:49.246Z,7.70
2022-08-20T05:39:22.155Z,7.30
2022-08-20T05:41:51.028Z,7.60
2022-08-20T05:44:19.564Z,7.00
2022-08-20T05:46:48.493Z,7.70
2022-08-20T05:49:20.319Z,6.80
2022-08-20T05:51:51.529Z,6.50
2022-08-20T05:54:20.300Z,7.20
2022-08-20T05:56:48.397Z,6.30
2022-08-20T05:59:19.990Z,7.00
2022-08-20T06:01:52.761Z,6.70
2022-08-20T06:04:28.420Z,6.50
2022-08-20T06:07:06.654Z,6.90
2022-08-20T06:09:36.492Z,6.50
2022-08-20T06:12:07.955Z,6.20
2022-08-20T06:14:36.538Z,6.00
2022-08-20T06:17:15.340Z,6.20
2022-08-20T06:19:47.496Z,6.00
2022-08-20T06:22:18.697Z,6.20
2022-08-20T06:24:53.292Z,7.20
2022-08-20T06:27:22.115Z,6.30
2022-08-20T06:29:51.482Z,5.90
2022-08-20T06:32:28.843Z,6.10
2022-08-20T06:35:03.586Z,6.00
2022-08-20T06:37:36.623Z,5.90
2022-08-20T06:40:09.659Z,5.80
2022-08-20T06:42:48.265Z,5.90
2022-08-20T06:45:25.807Z,6.40
2022-08-20T06:47:58.262Z,6.20
2022-08-20T06:50:33.837Z,6.00
2022-08-20T06:53:01.985Z,6.10
2022-08-20T06:55:30.699Z,6.90
2022-08-20T06:58:05.937Z,6.20
2022-08-20T07:00:36.493Z,6.60
2022-08-20T07:03:05.304Z,6.80
2022-08-20T07:05:36.190Z,6.10
2022-08-20T07:08:05.337Z,6.80
2022-08-20T07:10:33.514Z,6.00
2022-08-20T07:13:01.668Z,5.90
2022-08-20T07:15:30.622Z,6.10
2022-08-20T07:18:01.823Z,6.20
2022-08-20T07:20:33.043Z,5.90
2022-08-20T07:23:02.153Z,5.50
2022-08-20T07:25:32.011Z,6.60
2022-08-20T07:28:05.556Z,6.10
2022-08-20T07:30:56.603Z,6.10
2022-08-20T07:33:28.588Z,5.70
2022-08-20T07:36:04.355Z,6.20
2022-08-20T07:38:34.087Z,6.30
2022-08-20T07:41:10.106Z,6.00
2022-08-20T07:43:39.668Z,5.30
2022-08-20T07:46:09.459Z,5.20
2022-08-20T07:48:40.434Z,5.30
2022-08-20T07:51:13.290Z,5.20
2022-08-20T07:53:41.557Z,5.00
2022-08-20T07:56:13.165Z,6.80
2022-08-20T07:58:50.330Z,6.20
2022-08-20T08:01:28.763Z,5.20
2022-08-20T08:03:58.162Z,5.90
2022-08-20T08:06:29.264Z,5.90
2022-08-20T08:09:10.181Z,5.70
2022-08-20T08:11:47.024Z,5.40
2022-08-20T08:14:19.684Z,5.40
2022-08-20T08:16:47.954Z,5.10
2022-08-20T08:19:18.114Z,6.30
2022-08-20T08:21:46.511Z,4.90
2022-08-20T08:24:19.979Z,6.30
2022-08-20T08:26:50.365Z,5.70
2022-08-20T08:29:18.879Z,4.60
2022-08-20T08:31:47.317Z,5.00
2022-08-20T08:34:15.688Z,4.90
2022-08-20T08:36:44.524Z,5.60
2022-08-20T08:39:12.895Z,4.90
2022-08-20T08:41:49.757Z,4.60
2022-08-20T08:44:23.657Z,4.50
2022-08-20T08:46:58.248Z,4.40
2022-08-20T08:49:37.659Z,3.90
2022-08-20T08:52:14.959Z,3.70
2022-08-20T08:54:49.094Z,4.20
2022-08-20T08:57:18.083Z,4.30
2022-08-20T09:00:03.987Z,4.20
2022-08-20T09:02:36.397Z,3.60
2022-08-20T09:05:15.466Z,4.30
2022-08-20T09:07:48.145Z,4.70
2022-08-20T09:10:22.888Z,4.00
2022-08-20T09:12:52.515Z,4.10
2022-08-20T09:15:21.492Z,3.90
2022-08-20T09:17:50.098Z,3.70
2022-08-20T09:20:18.572Z,4.10
2022-08-20T09:22:46.797Z,3.80
2022-08-20T09:25:17.081Z,3.90
2022-08-20T09:27:45.261Z,4.00
2022-08-20T09:30:17.016Z,4.50
2022-08-20T09:32:46.703Z,3.60
2022-08-20T09:35:15.652Z,3.80
2022-08-20T09:37:44.129Z,3.80
2022-08-20T09:40:14.192Z,3.40
2022-08-20T09:42:51.009Z,3.70
2022-08-20T09:45:20.549Z,4.00
2022-08-20T09:47:55.146Z,3.70
2022-08-20T09:50:27.444Z,3.70
2022-08-20T09:52:58.320Z,3.30
2022-08-20T09:55:35.425Z,3.80
2022-08-20T09:58:31.835Z,4.00
2022-08-20T10:01:17.806Z,3.70
2022-08-20T10:03:49.172Z,3.50
2022-08-20T10:06:20.412Z,4.50
2022-08-20T10:08:49.811Z,3.60
2022-08-20T10:11:18.299Z,3.30
2022-08-20T10:13:46.424Z,3.90
2022-08-20T10:16:14.530Z,3.50
2022-08-20T10:18:42.632Z,3.50
2022-08-20T10:21:12.446Z,4.10
2022-08-20T10:23:40.785Z,3.80
2022-08-20T10:26:13.245Z,3.40
2022-08-20T10:28:41.368Z,3.20
2022-08-20T10:31:11.597Z,3.00
2022-08-20T10:33:42.003Z,3.70
2022-08-20T10:36:13.697Z,3.40
2022-08-20T10:38:43.226Z,3.20
2022-08-20T10:41:11.818Z,2.80
2022-08-20T10:43:40.214Z,3.30
2022-08-20T10:46:09.257Z,3.60
2022-08-20T10:48:37.869Z,3.30
2022-08-20T10:51:06.296Z,2.70
2022-08-20T10:53:35.314Z,3.50
2022-08-20T10:56:03.729Z,3.20
2022-08-20T10:58:39.599Z,3.00
2022-08-20T11:01:09.296Z,2.90
2022-08-20T11:03:37.496Z,3.00
2022-08-20T11:06:06.733Z,3.00
2022-08-20T11:08:35.969Z,3.00
2022-08-20T11:11:06.134Z,2.70
2022-08-20T11:13:35.410Z,3.30
2022-08-20T11:16:04.269Z,3.00
2022-08-20T11:18:33.217Z,3.60
2022-08-20T11:21:02.255Z,2.60
2022-08-20T11:23:30.568Z,2.50
2022-08-20T11:25:59.358Z,2.90
2022-08-20T11:28:30.932Z,3.00
2022-08-20T11:31:01.679Z,2.80
2022-08-20T11:33:30.051Z,2.70
2022-08-20T11:35:58.182Z,3.50
2022-08-20T11:38:27.199Z,2.80
2022-08-20T11:40:55.433Z,3.20
2022-08-20T11:43:23.842Z,3.30
2022-08-20T11:45:55.657Z,3.00
2022-08-20T11:48:24.281Z,2.50
2022-08-20T11:50:52.396Z,2.90
2022-08-20T11:53:20.691Z,2.70
2022-08-20T11:55:50.660Z,2.60
2022-08-20T11:58:19.345Z,3.50
2022-08-20T12:00:47.625Z,3.30
2022-08-20T12:03:16.104Z,2.50
2022-08-20T12:05:47.098Z,2.80
2022-08-20T12:08:26.919Z,2.90
2022-08-20T12:11:02.850Z,2.90
2022-08-20T12:13:48.147Z,2.70
2022-08-20T12:16:23.357Z,2.50
2022-08-20T12:18:52.727Z,2.80
2022-08-20T12:21:20.972Z,3.20
2022-08-20T12:23:49.232Z,3.50
2022-08-20T12:26:18.081Z,3.20
2022-08-20T12:28:46.296Z,3.20
2022-08-20T12:31:16.054Z,3.30
2022-08-20T12:33:45.002Z,3.70
2022-08-20T12:36:13.097Z,3.70
2022-08-20T12:38:41.306Z,4.00
2022-08-20T12:41:09.586Z,3.50
2022-08-20T12:43:37.811Z,3.00
2022-08-20T12:46:06.098Z,3.10
2022-08-20T12:48:34.301Z,3.00
2022-08-20T12:51:05.765Z,2.60
2022-08-20T12:53:33.882Z,3.10
2022-08-20T12:56:05.148Z,3.10
2022-08-20T12:58:33.716Z,3.30
2022-08-20T13:01:01.926Z,3.10
2022-08-20T13:03:32.140Z,3.50
2022-08-20T13:06:01.698Z,3.40
2022-08-20T13:08:30.195Z,3.40
2022-08-20T13:10:58.366Z,3.00
2022-08-20T13:13:26.532Z,3.20
2022-08-20T13:15:54.659Z,3.10
2022-08-20T13:18:22.740Z,3.40
2022-08-20T13:20:50.970Z,4.00
2022-08-20T13:23:19.194Z,3.40
2022-08-20T13:25:47.381Z,4.20
2022-08-20T13:28:15.498Z,3.20
2022-08-20T13:30:43.678Z,3.20
2022-08-20T13:33:11.835Z,3.90
2022-08-20T13:35:40.063Z,3.70
2022-08-20T13:38:08.429Z,3.10
2022-08-20T13:40:36.538Z,3.10
2022-08-20T13:43:07.451Z,3.00
2022-08-20T13:45:38.042Z,3.10
2022-08-20T13:48:10.068Z,3.40
2022-08-20T13:50:47.350Z,2.90
2022-08-20T13:53:16.611Z,4.20
2022-08-20T13:55:46.559Z,3.30
2022-08-20T13:58:14.873Z,4.30
2022-08-20T14:00:46.793Z,3.40
2022-08-20T14:03:20.036Z,3.10
2022-08-20T14:05:54.146Z,3.30
2022-08-20T14:08:24.275Z,3.70
2022-08-20T14:10:52.663Z,3.30
2022-08-20T14:13:25.847Z,3.50
2022-08-20T14:15:54.968Z,3.60
2022-08-20T14:18:23.563Z,2.90
2022-08-20T14:20:52.222Z,3.20
2022-08-20T14:23:20.480Z,2.70
2022-08-20T14:25:55.220Z,2.80
2022-08-20T14:28:24.908Z,3.30
2022-08-20T14:30:53.804Z,3.10
2022-08-20T14:33:24.349Z,3.40
2022-08-20T14:35:53.275Z,3.30
2022-08-20T14:38:22.095Z,3.10
2022-08-20T14:40:53.630Z,2.90
2022-08-20T14:43:22.409Z,3.20
2022-08-20T14:45:50.704Z,2.80
2022-08-20T14:48:18.937Z,2.70
2022-08-20T14:50:47.090Z,3.20
2022-08-20T14:53:15.649Z,3.00
2022-08-20T14:55:44.166Z,3.90
2022-08-20T14:58:13.234Z,3.00
2022-08-20T15:00:42.982Z,3.00
2022-08-20T15:03:13.451Z,3.40
2022-08-20T15:05:42.276Z,3.50
2022-08-20T15:08:12.457Z,3.40
2022-08-20T15:10:41.737Z,3.40
2022-08-20T15:13:12.898Z,3.70
2022-08-20T15:15:41.198Z,4.10
2022-08-20T15:18:09.456Z,3.30
2022-08-20T15:20:38.331Z,3.50
2022-08-20T15:23:08.238Z,3.20
2022-08-20T15:25:38.093Z,3.20
2022-08-20T15:28:11.152Z,3.40
2022-08-20T15:30:42.062Z,3.40
2022-08-20T15:33:11.142Z,3.40
2022-08-20T15:35:39.729Z,3.30
2022-08-20T15:38:08.612Z,3.00
2022-08-20T15:40:37.314Z,3.90
2022-08-20T15:43:06.857Z,3.80
2022-08-20T15:45:36.045Z,3.20
2022-08-20T15:48:14.774Z,4.00
2022-08-20T15:51:04.322Z,2.80
2022-08-20T15:53:43.306Z,3.70
2022-08-20T15:56:16.793Z,3.80
2022-08-20T15:59:11.104Z,3.00
2022-08-20T16:02:11.592Z,3.50
2022-08-20T16:05:11.312Z,3.20
2022-08-20T16:08:01.203Z,3.60
2022-08-20T16:11:11.728Z,3.80
2022-08-20T16:14:03.299Z,4.50
2022-08-20T16:16:40.805Z,4.00
2022-08-20T16:19:16.543Z,3.80
2022-08-20T16:21:46.550Z,4.70
2022-08-20T16:24:15.397Z,4.40
2022-08-20T16:27:05.157Z,4.60
2022-08-20T16:29:48.205Z,4.20
2022-08-20T16:32:53.086Z,4.90
2022-08-20T16:35:58.191Z,5.50
2022-08-20T16:38:40.519Z,5.60
2022-08-20T16:41:18.465Z,5.80
2022-08-20T16:43:54.179Z,5.10
2022-08-20T16:46:27.790Z,4.80
2022-08-20T16:49:00.002Z,5.30
2022-08-20T16:51:52.153Z,4.90
2022-08-20T16:54:28.368Z,5.30
2022-08-20T16:57:20.482Z,5.70
2022-08-20T16:59:57.287Z,4.80
2022-08-20T17:02:29.024Z,4.40
2022-08-20T17:05:04.736Z,5.90
2022-08-20T17:07:51.569Z,4.50
2022-08-20T17:10:26.166Z,4.50
2022-08-20T17:13:01.005Z,5.10
2022-08-20T17:15:32.209Z,4.80
2022-08-20T17:18:33.498Z,4.50
2022-08-20T17:21:14.541Z,4.00
2022-08-20T17:23:56.086Z,4.70
2022-08-20T17:26:31.983Z,5.10
2022-08-20T17:29:04.459Z,4.80
2022-08-20T17:31:39.419Z,5.40
2022-08-20T17:34:17.350Z,4.60
2022-08-20T17:37:00.952Z,5.20
2022-08-20T17:39:29.911Z,5.90
2022-08-20T17:42:18.921Z,5.90
2022-08-20T17:45:08.234Z,5.90
2022-08-20T17:47:39.114Z,5.70
2022-08-20T17:50:16.937Z,5.60
2022-08-20T17:52:59.329Z,5.10
2022-08-20T17:55:32.747Z,4.60
2022-08-20T17:58:04.115Z,5.10
2022-08-20T18:00:32.350Z,5.50
2022-08-20T18:03:11.515Z,4.60
2022-08-20T18:05:40.233Z,4.70
2022-08-20T18:08:11.400Z,5.40
2022-08-20T18:11:12.677Z,5.20
2022-08-20T18:14:17.016Z,5.80
2022-08-20T18:17:13.365Z,6.40
2022-08-20T18:20:25.112Z,7.20
2022-08-20T18:23:26.563Z,5.10
2022-08-20T18:26:06.595Z,5.30
2022-08-20T18:28:41.441Z,5.20
2022-08-20T18:31:22.146Z,5.00
2022-08-20T18:33:50.854Z,5.00
2022-08-20T18:36:19.529Z,5.20
2022-08-20T18:39:11.256Z,4.80
2022-08-20T18:41:54.988Z,4.70
2022-08-20T18:44:38.120Z,4.10
2022-08-20T18:47:18.957Z,4.70
2022-08-20T18:49:58.476Z,5.10
2022-08-20T18:52:30.623Z,4.50
2022-08-20T18:55:03.241Z,4.50
2022-08-20T18:57:41.856Z,4.50
2022-08-20T19:00:17.720Z,4.50
2022-08-20T19:03:37.654Z,4.80
2022-08-20T19:06:24.087Z,5.00
2022-08-20T19:09:14.138Z,5.60
2022-08-20T19:11:49.633Z,4.40
2022-08-20T19:14:41.108Z,4.20
2022-08-20T19:17:18.032Z,4.40
2022-08-20T19:19:57.827Z,4.40
2022-08-20T19:22:27.453Z,4.30
2022-08-20T19:24:58.892Z,4.80
2022-08-20T19:27:29.426Z,4.50
2022-08-20T19:29:58.019Z,3.90
2022-08-20T19:32:29.334Z,3.60
2022-08-20T19:35:04.679Z,3.90
2022-08-20T19:37:39.899Z,4.10
2022-08-20T19:40:33.323Z,4.00
2022-08-20T19:43:14.602Z,4.00
2022-08-20T19:45:54.507Z,3.70
2022-08-20T19:48:42.982Z,4.10
2022-08-20T19:51:20.983Z,4.10
2022-08-20T19:53:50.278Z,3.80
2022-08-20T19:56:21.873Z,3.40
2022-08-20T19:59:09.085Z,3.80
2022-08-20T20:01:37.412Z,3.80
2022-08-20T20:04:14.897Z,3.50
2022-08-20T20:06:46.617Z,3.80
2022-08-20T20:09:27.331Z,3.70
2022-08-20T20:12:08.382Z,4.30
2022-08-20T20:14:38.683Z,3.80
2022-08-20T20:17:14.580Z,3.30
2022-08-20T20:19:59.398Z,3.20
2022-08-20T20:22:27.587Z,3.30
2022-08-20T20:25:19.157Z,4.10
2022-08-20T20:27:53.456Z,3.20
2022-08-20T20:30:27.730Z,3.60
2022-08-20T20:32:58.087Z,2.90
2022-08-20T20:35:32.545Z,3.40
2022-08-20T20:38:14.897Z,3.30
2022-08-20T20:40:50.597Z,3.20
2022-08-20T20:43:24.290Z,2.70
2022-08-20T20:48:28.513Z,3.10
2022-08-20T20:51:14.276Z,3.00
2022-08-20T20:53:54.373Z,3.00
2022-08-20T20:56:27.587Z,2.80
2022-08-20T20:58:56.351Z,3.20
2022-08-20T21:01:45.580Z,2.80
2022-08-20T21:04:13.435Z,2.30
2022-08-20T21:06:41.650Z,2.90
2022-08-20T21:09:09.818Z,2.70
2022-08-20T21:11:37.900Z,2.80
2022-08-20T21:14:06.076Z,2.70
2022-08-20T21:16:34.216Z,2.50
2022-08-20T21:19:05.498Z,3.00
2022-08-20T21:21:34.717Z,3.30
2022-08-20T21:24:03.065Z,2.90
2022-08-20T21:26:31.755Z,2.70
2022-08-20T21:29:00.124Z,3.00
2022-08-20T21:31:34.055Z,3.30
2022-08-20T21:34:02.407Z,2.70
2022-08-20T21:36:30.601Z,2.90
2022-08-20T21:38:58.699Z,3.30
2022-08-20T21:41:29.738Z,3.30
2022-08-20T21:44:06.900Z,3.10
2022-08-20T21:46:35.050Z,2.80
2022-08-20T21:49:04.316Z,3.00
2022-08-20T21:51:32.503Z,2.80
2022-08-20T21:54:01.695Z,2.90
2022-08-20T21:56:30.319Z,2.80
2022-08-20T21:59:01.471Z,2.90
2022-08-20T22:01:32.936Z,3.00
2022-08-20T22:04:01.791Z,2.90
2022-08-20T22:06:30.293Z,2.50
2022-08-20T22:08:59.469Z,2.90
2022-08-20T22:11:27.789Z,3.20
2022-08-20T22:13:56.050Z,2.50
2022-08-20T22:16:24.262Z,2.20
2022-08-20T22:18:52.986Z,2.90
2022-08-20T22:21:24.576Z,2.50
2022-08-20T22:23:54.841Z,3.10
2022-08-20T22:26:23.199Z,3.00
2022-08-20T22:28:56.089Z,2.90
2022-08-20T22:31:28.875Z,2.80
2022-08-20T22:33:58.581Z,2.90
2022-08-20T22:36:29.409Z,3.00
2022-08-20T22:38:57.583Z,2.80
2022-08-20T22:41:26.860Z,3.40
2022-08-20T22:43:56.285Z,3.40
2022-08-20T22:46:30.520Z,3.00
2022-08-20T22:48:58.841Z,2.60
2022-08-20T22:51:30.817Z,2.90
2022-08-20T22:54:00.366Z,3.20
2022-08-20T22:56:29.938Z,2.90
2022-08-20T22:58:59.600Z,3.10
2022-08-20T23:01:29.325Z,2.60
2022-08-20T23:04:05.714Z,3.10
2022-08-20T23:06:33.854Z,2.50
2022-08-20T23:09:01.988Z,2.70
2022-08-20T23:11:31.222Z,3.20
2022-08-20T23:13:59.375Z,3.30
2022-08-20T23:16:27.601Z,2.90
2022-08-20T23:18:55.791Z,2.80
2022-08-20T23:21:23.912Z,2.50
2022-08-20T23:23:52.136Z,2.90
2022-08-20T23:26:22.388Z,2.40
2022-08-20T23:28:50.830Z,2.50
2022-08-20T23:31:19.027Z,2.50
2022-08-20T23:33:47.276Z,3.00
2022-08-20T23:36:19.077Z,2.40
2022-08-20T23:38:47.539Z,3.20
2022-08-20T23:41:15.887Z,2.30
2022-08-20T23:43:44.274Z,2.40
2022-08-20T23:46:13.053Z,2.50
2022-08-20T23:48:41.311Z,2.30
2022-08-20T23:51:10.259Z,3.00
2022-08-20T23:53:39.058Z,2.50
2022-08-20T23:56:07.346Z,2.40
2022-08-20T23:58:36.122Z,2.30
